Tripoli, WI

2:09 AM CDT on May 29, 2015 (GMT -0500)
RICE RESERVOIR | | Change Station
CLOSE
Current Station
Personal Weather Station
Location: Tomahawk, WI
Elevation: 1499 ft
Nearby Weather Stations

Elev 1499 ft 45.56 °N, 89.77 °W | Updated 1 minute ago

Clear
Clear
62.7 °F
Feels Like 62.7 °F
N
1.0
Wind Variable Wind from South
Gusts 1.0 mph

Today
High -- | Low -- °F
--% Chance of Precip.
Yesterday
High -- | Low -- °F
Precip. -- in
5:16 AM 8:39 PM
Waxing Gibbous, 81% visible
Pressure 30.02 in
Visibility 10.0 miles
Clouds Clear
Dew Point 55 °F
Humidity 75%
Rainfall 0.00 in
Snow Depth Not available.
UV 0 out of 12
Pollen 8.50 out of 12
Air Quality Not available.
Flu Activity Sporadic
METAR KTKV 290655Z AUTO 00000KT 10SM CLR 14/12 A3002 RMK AO2 T01360121

More Conditions Fewer Conditions

Pressure 30.02 in
Visibility 10.0 miles
Clouds Clear
Dew Point 55 °F
Humidity 75%
Rainfall 0.00 in
Snow Depth Not available.
UV 0 out of 12
Pollen 8.50 out of 12
Air Quality Not available.
Flu Activity Sporadic
METAR KTKV 290655Z AUTO 00000KT 10SM CLR 14/12 A3002 RMK AO2 T01360121

More Conditions Fewer Conditions

10-Day Weather Forecast

Almanac

Astronomy

May. 29, 2015 Rise Set
Actual Time
Civil Twilight
Nautical Twilight
Astronomical Twilight
Moon
Length of Visible Light
Length of Day
Tomorrow will be .
, % of the Moon is Illuminated

Today's Extremes

State Highs State Lows

Community

WunderPhotos

Upload Photos

1,825,215 photos uploaded!

WunderBlogs® & News

Nearby

Air Quality

  Air Quality AQ Index Pollutant
Not available.

Snow Depth

Station Depth Elevation

Earthquake Activity

City Distance Mag. Time & Date
Minimum magnitude displayed is 2.5.

Coastal Water Temperatures

Place Temperature

Stations

Nearby Weather Stations

Station Location Temp. Windchill Dew Point Humidity Wind Precip. Elev Updated Type